Time;durP1;ratioP1;P1;durP2;ratioP2;P2;SDS_P1;SDS_P2;PMS_P1;PMS_P2;Temp;Humidity;BMP_temperature;BMP_pressure;BME280_temperature;BME280_humidity;BME280_pressure;Samples;Min_cycle;Max_cycle;Signal;HPM_P1;HPM_P2
2021/03/19 00:00:26;;;;;;;12.17;9.70;;;9.20;53.60;;;;;;5015251;28;20611;-43
2021/03/19 00:02:53;;;;;;;11.20;10.07;;;9.30;53.60;;;;;;5012915;28;20197;-45
2021/03/19 00:05:20;;;;;;;11.33;9.70;;;9.30;53.80;;;;;;5011747;28;20189;-44
2021/03/19 00:07:55;;;;;;;11.40;10.20;;;9.40;53.80;;;;;;5012291;28;20456;-45
2021/03/19 00:10:24;;;;;;;11.50;10.27;;;9.30;53.90;;;;;;5006820;28;20483;-43
2021/03/19 00:12:50;;;;;;;12.00;10.80;;;9.40;54.10;;;;;;5012295;28;20547;-43
2021/03/19 00:15:21;;;;;;;12.47;10.93;;;9.40;54.20;;;;;;5011772;28;20429;-43
2021/03/19 00:17:46;;;;;;;12.40;9.70;;;9.40;54.10;;;;;;5013627;28;20424;-45
2021/03/19 00:20:13;;;;;;;11.27;9.40;;;9.40;53.90;;;;;;5011462;28;20498;-42
2021/03/19 00:22:39;;;;;;;11.50;9.60;;;9.40;53.60;;;;;;5012630;28;20201;-43
2021/03/19 00:25:06;;;;;;;11.90;9.03;;;9.40;53.60;;;;;;5010638;28;20448;-44
2021/03/19 00:27:33;;;;;;;15.97;9.90;;;9.40;53.40;;;;;;5011144;28;20448;-43
2021/03/19 00:30:00;;;;;;;12.03;9.80;;;9.40;53.40;;;;;;5008847;28;20472;-44
2021/03/19 00:32:25;;;;;;;13.07;10.13;;;9.50;53.60;;;;;;5011125;28;20444;-43
2021/03/19 00:34:51;;;;;;;11.97;10.70;;;9.40;53.70;;;;;;5011757;28;20448;-43
2021/03/19 00:37:17;;;;;;;13.20;10.63;;;9.50;53.90;;;;;;5011007;28;20284;-44
2021/03/19 00:39:43;;;;;;;11.80;10.10;;;9.50;54.10;;;;;;5011312;28;20749;-43
2021/03/19 00:42:09;;;;;;;12.23;10.30;;;9.50;54.50;;;;;;5011523;28;20201;-43
2021/03/19 00:44:39;;;;;;;12.20;10.00;;;9.50;54.60;;;;;;5011863;28;20560;-45
2021/03/19 00:47:04;;;;;;;15.00;10.53;;;9.50;54.70;;;;;;5011824;28;20198;-42
2021/03/19 00:49:30;;;;;;;12.20;9.00;;;9.50;54.60;;;;;;5011750;28;20436;-44
2021/03/19 00:51:57;;;;;;;12.17;9.10;;;9.50;54.80;;;;;;5010315;28;20225;-45
2021/03/19 00:54:22;;;;;;;13.37;10.10;;;9.40;54.70;;;;;;5011240;28;20440;-43
2021/03/19 00:56:48;;;;;;;8.63;7.70;;;9.40;54.80;;;;;;5011007;28;20441;-43
2021/03/19 00:59:13;;;;;;;8.70;7.70;;;9.40;54.90;;;;;;5011726;28;20329;-45
2021/03/19 01:01:39;;;;;;;11.90;8.97;;;9.40;55.10;;;;;;5010819;28;20198;-47
2021/03/19 01:04:05;;;;;;;8.43;7.50;;;9.40;55.40;;;;;;5011157;28;20201;-46
2021/03/19 01:06:31;;;;;;;9.93;8.80;;;9.30;55.50;;;;;;5010468;28;20209;-47
2021/03/19 01:08:58;;;;;;;11.53;8.37;;;9.30;55.60;;;;;;5011704;28;20429;-47
2021/03/19 01:11:27;;;;;;;15.07;8.30;;;9.20;55.60;;;;;;5010340;28;20495;-44
2021/03/19 01:13:53;;;;;;;11.07;8.70;;;9.20;55.60;;;;;;5010480;28;20879;-45
2021/03/19 01:16:20;;;;;;;10.13;8.60;;;9.20;56.30;;;;;;5010631;28;20552;-46
2021/03/19 01:18:45;;;;;;;12.63;8.90;;;9.20;55.80;;;;;;5011142;28;20551;-43
2021/03/19 01:21:12;;;;;;;11.50;8.93;;;9.30;55.80;;;;;;5009392;28;20436;-43
2021/03/19 01:23:38;;;;;;;10.53;9.43;;;9.20;55.70;;;;;;5010122;28;20190;-45
2021/03/19 01:26:03;;;;;;;11.70;8.57;;;9.20;55.80;;;;;;5010516;28;20496;-43
2021/03/19 01:28:29;;;;;;;9.50;8.57;;;9.20;55.70;;;;;;5011484;28;20621;-45
2021/03/19 01:30:55;;;;;;;11.70;9.60;;;9.20;55.80;;;;;;5010691;28;20241;-44
2021/03/19 01:33:22;;;;;;;9.87;8.70;;;9.10;55.90;;;;;;5012086;28;20297;-43
2021/03/19 01:35:48;;;;;;;9.03;8.23;;;9.10;56.10;;;;;;5009587;28;20449;-43
2021/03/19 01:38:13;;;;;;;9.50;8.00;;;9.10;56.30;;;;;;5011672;28;20486;-42
2021/03/19 01:40:41;;;;;;;11.47;10.27;;;9.10;56.20;;;;;;5010497;28;20194;-44
2021/03/19 01:43:39;;;;;;;11.17;10.00;;;9.10;56.20;;;;;;5010274;28;20197;-44
2021/03/19 01:46:42;;;;;;;10.80;9.70;;;9.10;56.20;;;;;;5009643;28;20441;-43
2021/03/19 01:49:45;;;;;;;11.13;10.10;;;9.10;56.20;;;;;;5009846;28;20504;-43
2021/03/19 01:52:48;;;;;;;12.93;9.90;;;9.10;56.40;;;;;;5001404;28;20539;-43
2021/03/19 01:55:51;;;;;;;11.37;9.70;;;9.00;56.20;;;;;;5006723;28;20959;-43
2021/03/19 01:58:54;;;;;;;11.87;10.67;;;9.00;56.30;;;;;;5010261;28;20440;-44
2021/03/19 02:01:57;;;;;;;11.33;10.10;;;9.00;56.30;;;;;;5007727;28;20443;-45
2021/03/19 02:05:00;;;;;;;12.20;10.70;;;8.90;56.30;;;;;;5010645;28;20886;-43
2021/03/19 02:08:03;;;;;;;12.27;11.07;;;8.90;56.40;;;;;;5007438;28;20448;-43
2021/03/19 02:11:06;;;;;;;13.37;11.97;;;8.90;56.50;;;;;;5010433;28;20537;-43
2021/03/19 02:14:08;;;;;;;13.70;12.27;;;8.90;56.30;;;;;;5010720;28;20484;-42
2021/03/19 02:17:11;;;;;;;13.17;11.80;;;9.00;56.20;;;;;;5008374;28;20437;-44
2021/03/19 02:20:14;;;;;;;14.80;12.50;;;9.00;56.10;;;;;;5009521;28;20457;-43
2021/03/19 02:23:17;;;;;;;15.37;12.80;;;8.90;56.20;;;;;;5006788;28;20443;-43
2021/03/19 02:26:20;;;;;;;14.50;12.43;;;8.80;56.30;;;;;;5012728;28;20441;-43
2021/03/19 02:29:23;;;;;;;14.53;12.50;;;8.90;56.50;;;;;;5013913;28;20436;-42
2021/03/19 02:32:07;;;;;;;15.60;13.03;;;8.90;56.50;;;;;;5004829;28;20484;-44
2021/03/19 02:34:52;;;;;;;17.00;12.93;;;8.80;56.40;;;;;;5014572;28;20451;-42
2021/03/19 02:37:23;;;;;;;18.40;13.23;;;8.80;56.40;;;;;;5013751;28;20555;-43
2021/03/19 02:39:50;;;;;;;15.43;12.27;;;8.90;56.50;;;;;;5005239;28;20479;-42
2021/03/19 02:42:18;;;;;;;15.23;13.57;;;8.80;56.70;;;;;;5011968;28;20992;-45
2021/03/19 02:44:44;;;;;;;15.40;13.80;;;8.80;56.90;;;;;;5012319;28;20461;-44
2021/03/19 02:47:10;;;;;;;15.23;13.63;;;8.70;57.10;;;;;;4994812;28;20551;-44
2021/03/19 02:49:37;;;;;;;17.23;12.70;;;8.70;57.20;;;;;;5013297;28;20210;-43
2021/03/19 02:52:03;;;;;;;13.93;12.43;;;8.60;57.40;;;;;;5003991;28;20900;-42
2021/03/19 02:54:28;;;;;;;17.23;13.27;;;8.60;57.40;;;;;;5013865;28;20773;-43
2021/03/19 02:56:54;;;;;;;15.37;12.13;;;8.60;57.50;;;;;;5013176;28;20436;-42
2021/03/19 02:59:20;;;;;;;16.10;13.10;;;8.60;57.50;;;;;;5013448;28;20610;-42
2021/03/19 03:01:46;;;;;;;16.97;13.67;;;8.60;57.50;;;;;;5013180;28;20213;-43
2021/03/19 03:04:13;;;;;;;17.40;13.17;;;8.50;57.40;;;;;;5014196;28;20576;-42
2021/03/19 03:06:42;;;;;;;15.63;12.60;;;8.40;57.20;;;;;;5012097;28;20453;-42
2021/03/19 03:09:15;;;;;;;20.20;14.43;;;8.30;57.90;;;;;;5014135;28;20433;-42
2021/03/19 03:11:41;;;;;;;14.03;12.33;;;8.30;58.20;;;;;;5009631;28;20588;-42
2021/03/19 03:14:09;;;;;;;18.37;14.80;;;8.30;58.00;;;;;;5013768;28;20449;-43
2021/03/19 03:16:35;;;;;;;16.43;13.80;;;8.30;57.80;;;;;;5012340;28;20444;-45
2021/03/19 03:19:01;;;;;;;17.00;15.03;;;8.30;58.00;;;;;;5013900;28;20533;-43
2021/03/19 03:21:27;;;;;;;17.30;14.83;;;8.30;58.10;;;;;;5012428;28;20461;-43
2021/03/19 03:23:53;;;;;;;16.17;14.10;;;8.30;58.20;;;;;;5014164;28;20852;-43
2021/03/19 03:26:18;;;;;;;19.87;16.17;;;8.30;58.10;;;;;;5013920;28;20608;-42
2021/03/19 03:28:44;;;;;;;16.80;14.60;;;8.30;58.00;;;;;;5012595;28;20197;-42
2021/03/19 03:31:10;;;;;;;18.77;14.10;;;8.30;58.00;;;;;;5012054;28;20324;-43
2021/03/19 03:33:35;;;;;;;17.87;15.70;;;8.40;58.10;;;;;;5012843;28;20269;-45
2021/03/19 03:36:01;;;;;;;21.90;15.60;;;8.40;58.00;;;;;;5011011;28;20198;-43
2021/03/19 03:38:27;;;;;;;16.97;15.17;;;8.40;58.00;;;;;;5011825;28;20233;-43
2021/03/19 03:40:57;;;;;;;19.60;15.57;;;8.50;57.90;;;;;;5013578;28;20924;-44
2021/03/19 03:43:23;;;;;;;18.20;14.90;;;8.50;57.70;;;;;;5012667;28;20441;-43
2021/03/19 03:45:50;;;;;;;17.50;13.97;;;8.50;57.60;;;;;;5012223;28;20443;-43
2021/03/19 03:48:25;;;;;;;16.90;14.80;;;8.40;57.80;;;;;;5012986;28;20445;-45
2021/03/19 03:50:51;;;;;;;19.40;15.23;;;8.50;58.00;;;;;;5012148;28;20484;-43
2021/03/19 03:53:17;;;;;;;18.07;15.63;;;8.60;57.80;;;;;;5007733;28;20440;-44
2021/03/19 03:55:43;;;;;;;17.40;15.50;;;8.40;57.70;;;;;;5011474;28;20433;-43
2021/03/19 03:58:11;;;;;;;15.60;13.53;;;8.30;57.90;;;;;;4996552;28;21254;-42
2021/03/19 04:00:37;;;;;;;17.43;15.13;;;8.20;58.20;;;;;;5011234;28;20448;-44
2021/03/19 04:03:05;;;;;;;17.33;14.50;;;8.20;58.50;;;;;;5012628;28;20552;-43
2021/03/19 04:05:40;;;;;;;18.70;15.97;;;8.20;58.60;;;;;;5009459;28;20432;-43
2021/03/19 04:08:07;;;;;;;18.60;16.60;;;8.30;58.60;;;;;;5011898;28;20440;-43
2021/03/19 04:10:33;;;;;;;20.20;15.30;;;8.20;58.40;;;;;;5012162;28;20492;-43
2021/03/19 04:12:59;;;;;;;19.70;16.50;;;8.20;58.60;;;;;;5012388;28;20575;-42
2021/03/19 04:15:25;;;;;;;19.07;15.77;;;8.30;58.60;;;;;;5015584;28;20927;-42
2021/03/19 04:18:00;;;;;;;15.80;14.20;;;8.30;58.40;;;;;;4998890;28;20499;-44
2021/03/19 04:20:27;;;;;;;21.07;17.30;;;8.40;58.30;;;;;;5011068;28;20858;-42
2021/03/19 04:22:53;;;;;;;21.90;16.13;;;8.50;58.10;;;;;;5012167;28;20528;-42
2021/03/19 04:25:19;;;;;;;20.23;16.50;;;8.50;58.00;;;;;;5011362;28;20433;-43
2021/03/19 04:27:52;;;;;;;17.07;15.30;;;8.50;57.90;;;;;;5012945;28;20783;-44
2021/03/19 04:30:20;;;;;;;22.83;16.10;;;8.50;58.40;;;;;;5011584;28;20522;-44
2021/03/19 04:32:46;;;;;;;17.20;14.50;;;8.50;58.00;;;;;;5014213;28;20421;-43
2021/03/19 04:35:12;;;;;;;18.30;15.70;;;8.50;58.00;;;;;;5011428;28;20946;-42
2021/03/19 04:37:38;;;;;;;18.10;14.27;;;8.50;57.90;;;;;;5012122;28;20225;-44
2021/03/19 04:40:04;;;;;;;19.63;15.57;;;8.50;58.00;;;;;;5011278;28;20483;-42
2021/03/19 04:42:30;;;;;;;18.43;14.57;;;8.30;58.00;;;;;;5011919;28;20201;-43
2021/03/19 04:44:55;;;;;;;20.17;15.50;;;8.30;58.20;;;;;;5011202;28;20800;-42
2021/03/19 04:47:21;;;;;;;26.43;16.43;;;8.40;58.10;;;;;;5011665;28;20279;-42
2021/03/19 04:49:46;;;;;;;18.30;14.60;;;8.50;58.00;;;;;;5012315;28;20201;-43
2021/03/19 04:52:12;;;;;;;18.10;15.27;;;8.50;57.90;;;;;;5012088;28;20297;-45
2021/03/19 04:54:37;;;;;;;17.83;15.50;;;8.50;57.70;;;;;;5010534;28;20194;-43
2021/03/19 04:57:03;;;;;;;16.27;14.57;;;8.50;57.60;;;;;;5010712;28;20186;-43
2021/03/19 04:59:30;;;;;;;17.67;14.93;;;8.50;57.60;;;;;;5010970;28;20198;-43
2021/03/19 05:01:58;;;;;;;18.20;15.63;;;8.50;57.60;;;;;;5010248;28;20878;-43
2021/03/19 05:04:25;;;;;;;18.33;15.10;;;8.40;57.40;;;;;;5011850;28;20490;-43
2021/03/19 05:06:53;;;;;;;16.07;14.10;;;8.10;57.90;;;;;;5015476;28;20794;-43
2021/03/19 05:09:18;;;;;;;17.20;15.23;;;7.70;59.00;;;;;;5011612;28;20800;-45
2021/03/19 05:11:44;;;;;;;22.40;16.30;;;7.60;59.90;;;;;;5010860;28;20489;-43
2021/03/19 05:14:10;;;;;;;19.30;16.37;;;7.80;59.90;;;;;;5011603;28;20190;-42
2021/03/19 05:16:36;;;;;;;18.40;15.70;;;7.90;59.50;;;;;;5010709;28;20444;-42
2021/03/19 05:19:02;;;;;;;20.70;16.17;;;7.90;59.40;;;;;;5008338;28;20203;-42
2021/03/19 05:21:27;;;;;;;21.47;15.10;;;7.90;59.30;;;;;;5010614;28;20194;-42
2021/03/19 05:23:53;;;;;;;20.33;14.37;;;7.90;59.30;;;;;;5019268;28;20436;-42
2021/03/19 05:26:18;;;;;;;17.60;15.70;;;7.70;59.50;;;;;;5010522;28;20198;-42
2021/03/19 05:28:44;;;;;;;19.00;15.47;;;7.90;59.50;;;;;;5009068;28;20304;-42
2021/03/19 05:31:10;;;;;;;21.03;15.83;;;7.80;59.60;;;;;;5010617;28;20222;-43
2021/03/19 05:33:44;;;;;;;19.60;16.50;;;7.80;59.60;;;;;;5011561;28;20213;-43
2021/03/19 05:36:10;;;;;;;18.13;15.37;;;7.80;59.30;;;;;;5010760;28;20459;-43
2021/03/19 05:38:36;;;;;;;18.37;15.23;;;7.90;59.40;;;;;;4992936;28;21007;-47
2021/03/19 05:41:04;;;;;;;18.13;15.30;;;7.90;59.40;;;;;;5011311;28;20463;-42
2021/03/19 05:43:51;;;;;;;19.97;14.90;;;7.90;59.30;;;;;;5009650;28;20194;-44
2021/03/19 05:46:23;;;;;;;22.20;16.77;;;8.10;59.10;;;;;;5007047;28;20448;-43
2021/03/19 05:48:56;;;;;;;16.63;14.70;;;8.20;58.90;;;;;;5010655;28;20859;-43
2021/03/19 05:51:30;;;;;;;16.80;15.03;;;8.20;58.60;;;;;;5010696;28;20499;-42
2021/03/19 05:53:59;;;;;;;17.97;15.67;;;8.20;58.40;;;;;;5003332;28;20432;-44
2021/03/19 05:56:28;;;;;;;18.13;16.00;;;8.20;58.40;;;;;;5008137;28;20842;-43
2021/03/19 05:58:54;;;;;;;17.90;15.10;;;8.30;58.40;;;;;;5011642;28;20826;-42
2021/03/19 06:01:20;;;;;;;26.03;16.80;;;8.30;58.20;;;;;;5014728;28;20436;-45
2021/03/19 06:03:46;;;;;;;20.47;16.07;;;8.40;58.30;;;;;;5015150;28;20190;-44
2021/03/19 06:06:13;;;;;;;19.17;16.60;;;8.40;58.20;;;;;;5014137;28;20429;-43
2021/03/19 06:08:42;;;;;;;21.40;16.90;;;8.50;58.20;;;;;;5015003;28;20428;-43
2021/03/19 06:11:25;;;;;;;20.30;17.23;;;8.40;58.00;;;;;;5014183;28;20534;-44
2021/03/19 06:13:56;;;;;;;18.30;14.67;;;8.40;58.10;;;;;;5014994;28;20464;-42
2021/03/19 06:16:58;;;;;;;16.77;14.93;;;8.60;59.70;;;;;;5013474;28;20441;-41
2021/03/19 06:19:35;;;;;;;18.47;15.97;;;8.90;60.60;;;;;;4973190;28;20460;-42
2021/03/19 06:22:18;;;;;;;18.17;13.40;;;9.30;60.00;;;;;;5013851;28;20441;-41
2021/03/19 06:24:52;;;;;;;14.53;13.03;;;9.60;59.30;;;;;;5011889;28;20983;-42
2021/03/19 06:27:26;;;;;;;21.03;14.83;;;9.90;57.90;;;;;;5013782;28;20555;-42
2021/03/19 06:29:55;;;;;;;16.03;14.33;;;10.20;56.60;;;;;;5013885;28;20449;-42
2021/03/19 06:32:21;;;;;;;19.70;15.67;;;10.40;56.10;;;;;;5014318;28;20461;-42
2021/03/19 06:35:10;;;;;;;21.93;19.30;;;10.70;55.30;;;;;;5013244;28;20472;-42
2021/03/19 06:37:40;;;;;;;21.80;18.03;;;10.90;54.50;;;;;;5013148;28;20224;-42
2021/03/19 06:40:28;;;;;;;17.40;15.60;;;11.00;53.90;;;;;;5012518;28;20429;-42
2021/03/19 06:42:53;;;;;;;17.07;15.30;;;11.20;53.20;;;;;;5011391;28;20527;-42
2021/03/19 06:45:23;;;;;;;17.60;14.57;;;11.20;52.20;;;;;;5013072;28;20522;-42
2021/03/19 06:47:51;;;;;;;18.83;15.73;;;11.30;51.40;;;;;;5015236;28;20194;-42
2021/03/19 06:50:22;;;;;;;15.67;13.70;;;11.20;51.20;;;;;;5011227;28;20465;-42
2021/03/19 06:52:52;;;;;;;18.23;16.33;;;11.30;51.60;;;;;;5011621;28;20506;-42
2021/03/19 06:55:40;;;;;;;16.00;13.77;;;11.30;51.60;;;;;;5010955;28;20436;-42
2021/03/19 06:58:06;;;;;;;15.93;13.70;;;11.30;51.10;;;;;;5006506;28;20531;-42
2021/03/19 07:00:49;;;;;;;14.30;12.77;;;11.40;51.10;;;;;;5012820;28;20523;-42
2021/03/19 07:03:45;;;;;;;17.30;14.63;;;11.40;50.60;;;;;;5013120;28;20205;-42
2021/03/19 07:06:37;;;;;;;14.67;13.30;;;11.40;50.50;;;;;;5005058;28;20433;-42
2021/03/19 07:09:41;;;;;;;15.73;14.17;;;11.40;50.70;;;;;;5013443;28;20456;-42
2021/03/19 07:12:36;;;;;;;14.60;13.00;;;11.40;50.60;;;;;;5009465;28;20487;-42
2021/03/19 07:15:32;;;;;;;19.33;15.07;;;11.40;50.80;;;;;;4991718;28;20488;-42
2021/03/19 07:18:03;;;;;;;18.57;15.10;;;11.50;50.80;;;;;;5010996;28;20441;-44
2021/03/19 07:21:08;;;;;;;18.90;15.37;;;11.50;50.70;;;;;;5012872;28;20897;-42
2021/03/19 07:24:04;;;;;;;19.80;15.47;;;11.50;50.00;;;;;;5015598;28;20788;-42
2021/03/19 07:26:33;;;;;;;16.17;14.57;;;11.50;50.20;;;;;;5012831;28;20428;-42
2021/03/19 07:29:37;;;;;;;17.10;15.40;;;11.50;50.10;;;;;;5011832;28;20436;-42
2021/03/19 07:32:46;;;;;;;16.47;14.77;;;11.50;50.30;;;;;;4922311;29;20548;-51
2021/03/19 07:35:38;;;;;;;19.10;16.23;;;11.50;50.20;;;;;;4926492;29;20925;-42
2021/03/19 07:38:04;;;;;;;20.40;15.83;;;11.50;50.20;;;;;;5003240;28;20536;-42
2021/03/19 07:40:44;;;;;;;20.07;16.20;;;11.50;50.60;;;;;;5012971;28;20445;-42
2021/03/19 07:43:18;;;;;;;17.30;14.80;;;11.50;50.90;;;;;;5013603;28;20280;-42
2021/03/19 07:45:52;;;;;;;17.20;15.47;;;11.60;51.20;;;;;;5010312;28;20562;-43
2021/03/19 07:48:25;;;;;;;17.20;15.40;;;11.60;51.10;;;;;;5013488;28;20444;-43
2021/03/19 07:51:06;;;;;;;20.77;16.30;;;11.50;51.00;;;;;;5013011;28;20476;-43
2021/03/19 07:53:54;;;;;;;17.60;14.60;;;11.50;51.20;;;;;;5013413;28;20467;-42
2021/03/19 07:56:25;;;;;;;20.00;15.50;;;11.50;51.10;;;;;;5012694;28;20453;-44
2021/03/19 07:59:01;;;;;;;19.20;16.20;;;11.50;51.40;;;;;;5012798;28;20479;-44
2021/03/19 08:01:58;;;;;;;17.47;15.70;;;11.50;51.40;;;;;;5009407;28;20519;-43
2021/03/19 08:04:39;;;;;;;18.00;15.77;;;11.50;51.40;;;;;;5003594;28;20812;-42
2021/03/19 08:07:17;;;;;;;18.47;15.33;;;11.50;51.50;;;;;;5012700;28;20464;-42
2021/03/19 08:10:05;;;;;;;17.07;15.30;;;11.50;51.70;;;;;;5012791;28;20797;-42
2021/03/19 08:12:49;;;;;;;17.70;15.80;;;11.50;51.60;;;;;;5001768;28;20467;-43
2021/03/19 08:15:32;;;;;;;18.43;16.20;;;11.60;51.90;;;;;;5011872;28;20911;-44
2021/03/19 08:18:30;;;;;;;18.17;15.87;;;11.60;51.60;;;;;;5009361;28;20495;-42
2021/03/19 08:21:14;;;;;;;17.67;15.40;;;11.70;51.40;;;;;;4992991;28;20531;-43
2021/03/19 08:23:59;;;;;;;17.37;14.17;;;11.70;51.20;;;;;;5003115;28;20433;-42
2021/03/19 08:26:29;;;;;;;16.20;14.00;;;11.70;51.10;;;;;;5016107;28;20440;-45
2021/03/19 08:29:15;;;;;;;15.73;14.13;;;11.60;51.10;;;;;;5019929;28;20460;-43
2021/03/19 08:31:48;;;;;;;19.40;15.03;;;11.50;51.50;;;;;;5001150;28;20583;-42
2021/03/19 08:34:27;;;;;;;16.77;14.40;;;11.40;51.70;;;;;;4999738;28;20440;-42
2021/03/19 08:36:54;;;;;;;18.70;16.10;;;11.30;52.40;;;;;;5010387;28;20503;-43
2021/03/19 08:39:35;;;;;;;15.97;14.10;;;11.30;52.10;;;;;;5011323;28;20892;-42
2021/03/19 08:42:28;;;;;;;15.13;13.57;;;11.30;52.30;;;;;;5009711;28;20457;-42
2021/03/19 08:44:54;;;;;;;15.20;13.33;;;11.40;52.60;;;;;;5003582;28;21029;-43
2021/03/19 08:47:40;;;;;;;16.53;14.80;;;11.40;52.60;;;;;;5008362;28;20517;-44
2021/03/19 08:50:25;;;;;;;18.47;15.43;;;11.40;52.70;;;;;;5005451;28;20565;-42
2021/03/19 08:53:14;;;;;;;20.60;16.10;;;11.50;52.60;;;;;;5012257;28;20944;-42
2021/03/19 08:55:50;;;;;;;16.53;14.70;;;11.50;52.30;;;;;;4998320;28;20449;-42
2021/03/19 08:58:28;;;;;;;17.40;15.60;;;11.50;52.50;;;;;;5002330;28;20472;-43
2021/03/19 09:00:58;;;;;;;16.37;14.50;;;11.50;52.40;;;;;;5000466;28;20451;-42
2021/03/19 09:03:49;;;;;;;18.00;15.90;;;11.50;52.50;;;;;;4998795;28;20520;-42
2021/03/19 09:06:22;;;;;;;21.33;16.00;;;11.50;52.60;;;;;;4996425;28;20532;-42
2021/03/19 09:09:01;;;;;;;18.20;14.87;;;11.30;52.70;;;;;;5012146;28;20447;-42
2021/03/19 09:11:36;;;;;;;16.70;13.60;;;11.20;53.20;;;;;;5000527;28;20940;-42
2021/03/19 09:14:02;;;;;;;15.77;13.30;;;11.20;53.60;;;;;;5012354;28;20490;-42
2021/03/19 09:16:55;;;;;;;19.20;14.40;;;11.20;53.80;;;;;;5007295;28;20459;-43
2021/03/19 09:19:32;;;;;;;16.03;13.40;;;11.20;53.90;;;;;;5010105;28;20816;-43
2021/03/19 09:22:20;;;;;;;13.57;11.90;;;11.20;53.60;;;;;;5001396;28;20826;-42
2021/03/19 09:27:42;;;;;;;13.20;11.80;;;11.10;53.50;;;;;;5005586;28;20855;-43
2021/03/19 09:30:22;;;;;;;18.97;12.83;;;11.00;53.60;;;;;;5011322;28;20472;-42
2021/03/19 09:32:58;;;;;;;12.67;11.03;;;11.10;53.90;;;;;;5005131;28;20452;-42
2021/03/19 09:35:45;;;;;;;12.80;11.20;;;11.20;54.10;;;;;;5006535;28;20479;-41
2021/03/19 09:38:23;;;;;;;13.17;10.73;;;11.30;53.80;;;;;;5009416;28;20480;-42
2021/03/19 09:40:58;;;;;;;12.17;10.43;;;11.40;53.30;;;;;;5007533;28;20461;-41
2021/03/19 09:43:49;;;;;;;12.50;10.40;;;11.40;53.20;;;;;;5010618;28;20996;-43
2021/03/19 09:46:30;;;;;;;10.20;9.10;;;11.30;53.20;;;;;;5009326;28;20441;-43
2021/03/19 09:49:07;;;;;;;11.47;10.27;;;11.20;53.10;;;;;;5011929;28;20429;-43
2021/03/19 09:51:41;;;;;;;9.90;8.50;;;11.30;52.70;;;;;;5009573;28;20575;-44
2021/03/19 09:54:28;;;;;;;13.03;11.33;;;11.10;52.70;;;;;;5011044;28;20583;-43
2021/03/19 09:57:00;;;;;;;14.70;11.90;;;11.00;53.30;;;;;;5009149;28;20453;-43
2021/03/19 09:59:29;;;;;;;11.60;10.13;;;10.80;53.60;;;;;;5010112;28;20441;-43
2021/03/19 10:01:56;;;;;;;9.13;8.23;;;10.90;53.60;;;;;;5010349;28;20433;-43
2021/03/19 10:04:29;;;;;;;9.73;8.67;;;10.90;53.60;;;;;;5009079;28;20429;-43
2021/03/19 10:06:55;;;;;;;12.20;10.37;;;11.00;53.20;;;;;;5009115;28;20481;-43
2021/03/19 10:09:37;;;;;;;11.67;9.83;;;11.10;53.10;;;;;;5010917;28;20465;-43
2021/03/19 10:12:22;;;;;;;11.30;10.07;;;11.20;53.20;;;;;;5011056;28;20485;-45
2021/03/19 10:14:53;;;;;;;11.17;9.57;;;11.20;53.10;;;;;;5009529;28;20444;-46
2021/03/19 10:17:27;;;;;;;10.63;8.60;;;11.40;53.20;;;;;;5000552;28;20434;-44
2021/03/19 10:20:20;;;;;;;9.80;8.70;;;11.40;52.50;;;;;;5000986;28;20456;-44
2021/03/19 10:22:49;;;;;;;9.20;8.30;;;11.40;51.70;;;;;;5009987;28;20506;-44
2021/03/19 10:25:31;;;;;;;9.53;8.53;;;11.50;51.60;;;;;;5005916;28;20447;-46
2021/03/19 10:28:03;;;;;;;9.20;8.30;;;11.50;51.50;;;;;;4986095;28;20779;-44
2021/03/19 10:30:44;;;;;;;10.23;9.13;;;11.50;51.40;;;;;;4996184;28;20473;-45
2021/03/19 10:33:16;;;;;;;9.23;8.20;;;11.30;51.40;;;;;;5008921;28;20446;-43
2021/03/19 10:36:10;;;;;;;9.47;7.90;;;11.20;51.40;;;;;;5008965;28;20441;-41
2021/03/19 10:38:40;;;;;;;9.90;7.43;;;11.20;51.60;;;;;;5001841;28;20472;-41
2021/03/19 10:41:25;;;;;;;10.97;8.33;;;11.10;51.60;;;;;;5004905;28;20531;-41
2021/03/19 10:43:53;;;;;;;7.43;6.60;;;11.10;51.70;;;;;;5006887;28;20491;-41
2021/03/19 10:46:35;;;;;;;9.03;8.10;;;10.90;51.10;;;;;;5012310;28;20471;-41
2021/03/19 10:49:06;;;;;;;8.00;7.20;;;10.50;51.60;;;;;;5013357;28;20452;-43
2021/03/19 10:51:42;;;;;;;9.30;8.40;;;10.50;51.90;;;;;;5009529;28;20570;-42
2021/03/19 10:54:13;;;;;;;9.40;8.17;;;10.40;52.20;;;;;;5010511;28;20491;-42
2021/03/19 10:56:48;;;;;;;10.23;8.50;;;10.50;52.70;;;;;;5004904;28;20536;-42
2021/03/19 10:59:36;;;;;;;8.80;7.33;;;10.40;52.80;;;;;;5005082;28;20536;-42
2021/03/19 11:02:24;;;;;;;4.80;4.30;;;10.50;53.10;;;;;;5000748;28;20447;-45
2021/03/19 11:04:57;;;;;;;5.40;4.90;;;10.00;52.50;;;;;;5008746;28;20444;-43
2021/03/19 11:07:26;;;;;;;4.30;3.90;;;9.70;53.80;;;;;;5012917;28;20551;-44
2021/03/19 11:10:13;;;;;;;5.67;4.10;;;9.40;54.50;;;;;;5010865;28;20441;-42
2021/03/19 11:12:48;;;;;;;5.00;4.50;;;9.30;54.80;;;;;;5005687;28;20868;-42
2021/03/19 11:15:20;;;;;;;5.00;4.17;;;9.20;54.70;;;;;;5007422;28;20433;-42
2021/03/19 11:17:46;;;;;;;5.50;5.00;;;9.30;55.40;;;;;;5012992;28;20465;-44
2021/03/19 11:20:18;;;;;;;5.13;4.17;;;9.30;55.10;;;;;;5012470;28;20479;-42
2021/03/19 11:22:46;;;;;;;5.70;5.13;;;9.10;55.50;;;;;;5012924;28;20491;-42
2021/03/19 11:25:47;;;;;;;5.37;4.83;;;9.10;55.90;;;;;;5011993;28;20441;-42
2021/03/19 11:28:28;;;;;;;8.13;5.37;;;9.20;56.30;;;;;;5012357;28;20444;-42
2021/03/19 11:30:55;;;;;;;5.83;5.00;;;9.20;55.90;;;;;;5010672;28;20503;-43
2021/03/19 11:33:20;;;;;;;5.50;5.00;;;9.00;55.80;;;;;;5005789;28;20474;-42
2021/03/19 11:36:09;;;;;;;6.27;5.67;;;8.90;56.30;;;;;;5010576;28;20487;-42
2021/03/19 11:38:38;;;;;;;7.67;6.27;;;8.50;55.60;;;;;;5011467;28;20189;-42
2021/03/19 11:41:31;;;;;;;7.00;6.20;;;8.40;56.90;;;;;;5006929;28;20441;-42
2021/03/19 11:43:58;;;;;;;7.53;6.50;;;8.30;56.60;;;;;;5003053;28;20863;-42
2021/03/19 11:46:24;;;;;;;7.80;6.03;;;8.40;57.20;;;;;;5010779;28;20472;-43
2021/03/19 11:48:50;;;;;;;8.10;6.30;;;8.50;57.40;;;;;;5012943;28;20531;-43
2021/03/19 11:51:39;;;;;;;7.30;6.07;;;8.60;57.40;;;;;;5010532;28;20539;-42
2021/03/19 11:54:08;;;;;;;7.10;6.30;;;8.90;57.50;;;;;;5012731;28;20940;-44
2021/03/19 11:56:34;;;;;;;8.33;6.90;;;8.90;56.10;;;;;;5008312;28;20472;-43
2021/03/19 11:59:00;;;;;;;7.73;6.20;;;8.80;56.10;;;;;;5012763;28;20460;-43
2021/03/19 12:01:29;;;;;;;9.00;7.63;;;8.70;55.40;;;;;;5012643;28;20198;-43
2021/03/19 12:03:55;;;;;;;8.60;6.50;;;8.70;56.70;;;;;;5012157;28;20249;-43
2021/03/19 12:06:24;;;;;;;8.50;7.13;;;8.40;56.90;;;;;;5003232;28;20433;-43
2021/03/19 12:08:50;;;;;;;8.40;6.80;;;8.50;57.50;;;;;;5008896;28;20429;-43
2021/03/19 12:11:39;;;;;;;8.23;6.90;;;8.40;57.30;;;;;;4993155;28;20951;-43
2021/03/19 12:14:08;;;;;;;9.17;7.47;;;8.60;58.20;;;;;;5008383;28;20803;-42
2021/03/19 12:16:35;;;;;;;10.80;7.77;;;8.80;57.70;;;;;;5000336;28;20853;-44
2021/03/19 12:19:01;;;;;;;9.47;7.10;;;8.80;57.10;;;;;;5001124;28;20529;-43
2021/03/19 12:21:27;;;;;;;10.50;8.30;;;8.80;57.40;;;;;;5005437;28;20437;-43
2021/03/19 12:23:53;;;;;;;10.50;8.30;;;8.60;57.40;;;;;;5007558;28;20951;-43
2021/03/19 12:26:18;;;;;;;8.90;8.00;;;8.80;57.80;;;;;;5011119;28;20324;-42
2021/03/19 12:28:45;;;;;;;10.87;8.43;;;8.90;57.30;;;;;;5012435;28;20197;-46
2021/03/19 12:31:13;;;;;;;9.93;7.90;;;8.90;56.50;;;;;;5011270;28;20308;-43
2021/03/19 12:33:39;;;;;;;12.20;9.03;;;9.00;57.10;;;;;;5006131;28;20475;-43
2021/03/19 12:36:06;;;;;;;14.23;10.13;;;9.10;57.50;;;;;;5001818;28;20457;-44
2021/03/19 12:38:33;;;;;;;13.17;9.93;;;8.80;57.10;;;;;;5006980;28;20534;-44
2021/03/19 12:40:59;;;;;;;12.50;9.33;;;8.80;56.20;;;;;;5008585;28;20461;-42
2021/03/19 12:43:25;;;;;;;12.37;8.50;;;8.70;55.90;;;;;;5005836;28;20440;-41
2021/03/19 12:45:51;;;;;;;11.60;9.33;;;8.80;57.10;;;;;;5008091;28;20789;-42
2021/03/19 12:48:17;;;;;;;11.70;8.80;;;9.00;56.80;;;;;;5012772;28;20421;-42
2021/03/19 12:50:43;;;;;;;11.77;9.20;;;9.30;56.50;;;;;;5012007;28;20898;-42
2021/03/19 12:53:15;;;;;;;12.80;9.17;;;9.20;55.20;;;;;;5012375;28;20433;-43
2021/03/19 12:55:42;;;;;;;13.63;9.67;;;9.20;54.70;;;;;;5009862;28;20197;-41
2021/03/19 12:58:08;;;;;;;18.67;12.40;;;9.20;54.60;;;;;;5008047;28;22227;-41
2021/03/19 13:00:35;;;;;;;13.93;11.13;;;9.20;55.00;;;;;;5010446;28;20437;-41
2021/03/19 13:03:01;;;;;;;15.50;11.00;;;9.40;54.30;;;;;;5010660;28;20194;-41
2021/03/19 13:05:28;;;;;;;14.20;11.00;;;9.10;53.40;;;;;;5009606;28;20499;-41
2021/03/19 13:07:54;;;;;;;12.90;9.23;;;8.90;54.30;;;;;;5011678;28;20220;-41
2021/03/19 13:10:21;;;;;;;14.60;10.63;;;9.00;53.90;;;;;;5011661;28;20491;-41
2021/03/19 13:12:47;;;;;;;13.00;10.43;;;9.10;54.30;;;;;;5011309;28;20496;-41
2021/03/19 13:15:14;;;;;;;13.00;10.40;;;9.40;54.10;;;;;;5001278;28;20471;-42